Big Otter, West Virginia
Current Conditions -  °F | °C
As of 4:54 PM on Sunday 21 Dec 2014 (Local Time) from KCRW Reporting Station
Scattered Clouds Scattered Clouds  
Wind Chill: 40°   Ceiling: Unl
Heat Index: 43°   Visibility: 10mi
Dew Point: 26°   Wind: 5mph
Humidity: 51%   Direction: 10°N
Pressure: 30.17"   Gusts: NA
Location:  38.5245°N, 81.029°W
Report Text: KCRW 212154Z 01004KT 10SM SCT300 06/M03 A3017 RMK AO2 SLP222 T00611033
Loading
Personal Weather Stations






























Interactive Weather Map New forecast layout! Learn more

10-Day Weather Forecast

Advertisements
Track Severe Weather on mobile